createdAt,value
2019-02-23T00:00:37.043Z,14.43
2019-02-23T00:03:25.115Z,15.20
2019-02-23T00:06:12.585Z,13.87
2019-02-23T00:09:00.045Z,23.17
2019-02-23T00:11:47.793Z,23.37
2019-02-23T00:14:35.471Z,22.57
2019-02-23T00:17:22.937Z,18.33
2019-02-23T00:20:10.245Z,15.30
2019-02-23T00:22:57.659Z,16.07
2019-02-23T00:25:45.677Z,15.87
2019-02-23T00:28:32.924Z,15.90
2019-02-23T00:31:20.284Z,15.90
2019-02-23T00:34:07.742Z,15.07
2019-02-23T00:36:55.580Z,15.13
2019-02-23T00:39:44.569Z,15.33
2019-02-23T00:42:32.056Z,15.67
2019-02-23T00:45:19.809Z,15.27
2019-02-23T00:48:07.352Z,15.47
2019-02-23T00:50:54.714Z,14.87
2019-02-23T00:53:41.815Z,17.30
2019-02-23T00:56:29.499Z,14.27
2019-02-23T00:59:16.909Z,16.00
2019-02-23T01:02:04.340Z,14.63
2019-02-23T01:04:52.016Z,36.47
2019-02-23T01:07:39.770Z,39.83
2019-02-23T01:10:27.485Z,24.87
2019-02-23T01:13:14.773Z,17.20
2019-02-23T01:16:02.653Z,15.00
2019-02-23T01:18:50.292Z,16.43
2019-02-23T01:21:38.040Z,16.40
2019-02-23T01:24:25.427Z,28.70
2019-02-23T01:27:12.920Z,14.53
2019-02-23T01:30:00.487Z,12.30
2019-02-23T01:32:47.908Z,14.37
2019-02-23T01:35:35.464Z,12.63
2019-02-23T01:38:23.295Z,13.87
2019-02-23T01:41:10.752Z,12.97
2019-02-23T01:44:00.474Z,13.03
2019-02-23T01:46:47.540Z,12.10
2019-02-23T01:49:35.350Z,11.40
2019-02-23T01:52:22.440Z,13.47
2019-02-23T01:55:10.073Z,12.67
2019-02-23T01:57:57.505Z,12.47
2019-02-23T02:00:44.603Z,12.57
2019-02-23T02:03:32.164Z,12.83
2019-02-23T02:06:19.896Z,12.77
2019-02-23T02:09:07.717Z,12.90
2019-02-23T02:11:55.481Z,13.17
2019-02-23T02:14:43.087Z,12.93
2019-02-23T02:17:30.514Z,11.97
2019-02-23T02:20:18.221Z,11.60
2019-02-23T02:23:05.877Z,12.43
2019-02-23T02:25:53.419Z,12.63
2019-02-23T02:28:40.554Z,12.60
2019-02-23T02:31:27.889Z,14.60
2019-02-23T02:34:16.784Z,15.30
2019-02-23T02:37:04.438Z,14.73
2019-02-23T02:39:51.869Z,13.57
2019-02-23T02:42:39.299Z,12.77
2019-02-23T02:45:26.926Z,13.33
2019-02-23T02:48:14.375Z,12.73
2019-02-23T02:51:02.032Z,13.57
2019-02-23T02:53:49.728Z,12.93
2019-02-23T02:56:37.297Z,13.60
2019-02-23T02:59:24.429Z,13.80
2019-02-23T03:02:12.001Z,13.20
2019-02-23T03:04:59.683Z,13.20
2019-02-23T03:07:47.165Z,13.80
2019-02-23T03:10:34.973Z,13.60
2019-02-23T03:13:22.342Z,13.73
2019-02-23T03:16:09.801Z,15.03
2019-02-23T03:18:57.496Z,14.27
2019-02-23T03:21:45.304Z,14.47
2019-02-23T03:24:32.685Z,15.03
2019-02-23T03:27:20.196Z,14.63
2019-02-23T03:30:10.469Z,15.83
2019-02-23T03:32:58.238Z,13.43
2019-02-23T03:35:45.910Z,13.90
2019-02-23T03:38:33.341Z,16.97
2019-02-23T03:41:20.989Z,14.97
2019-02-23T03:44:08.391Z,14.33
2019-02-23T03:46:55.808Z,16.60
2019-02-23T03:49:43.335Z,17.67
2019-02-23T03:52:30.921Z,16.53
2019-02-23T03:55:18.262Z,18.13
2019-02-23T03:58:05.896Z,17.10
2019-02-23T04:00:53.385Z,16.83
2019-02-23T04:03:40.933Z,16.63
2019-02-23T04:06:28.393Z,15.30
2019-02-23T04:09:15.795Z,15.50
2019-02-23T04:12:03.280Z,13.73
2019-02-23T04:14:50.644Z,15.27
2019-02-23T04:17:38.010Z,14.00
2019-02-23T04:20:25.639Z,14.60
2019-02-23T04:23:13.361Z,14.60
2019-02-23T04:26:01.045Z,14.77
2019-02-23T04:28:48.605Z,14.83
2019-02-23T04:31:36.268Z,15.73
2019-02-23T04:34:23.993Z,14.60
2019-02-23T04:37:11.323Z,14.60
2019-02-23T04:39:58.786Z,14.67
2019-02-23T04:42:46.534Z,14.67
2019-02-23T04:45:33.973Z,13.63
2019-02-23T04:48:21.632Z,14.87
2019-02-23T04:51:14.463Z,15.13
2019-02-23T04:53:58.612Z,15.37
2019-02-23T04:56:46.115Z,14.27
2019-02-23T04:59:33.767Z,15.33
2019-02-23T05:02:20.988Z,14.47
2019-02-23T05:05:09.395Z,15.07
2019-02-23T05:07:56.833Z,15.07
2019-02-23T05:10:44.532Z,17.03
2019-02-23T05:13:32.162Z,14.73
2019-02-23T05:16:19.666Z,16.00
2019-02-23T05:19:07.325Z,15.93
2019-02-23T05:21:54.640Z,14.43
2019-02-23T05:24:42.326Z,15.57
2019-02-23T05:27:29.554Z,16.80
2019-02-23T05:30:16.800Z,16.23
2019-02-23T05:33:04.413Z,18.40
2019-02-23T05:35:52.023Z,20.33
2019-02-23T05:38:39.655Z,20.17
2019-02-23T05:41:27.049Z,19.73
2019-02-23T05:44:14.684Z,18.27
2019-02-23T05:47:02.098Z,18.10
2019-02-23T05:49:49.465Z,20.10
2019-02-23T05:52:36.528Z,17.10
2019-02-23T05:55:24.010Z,18.43
2019-02-23T05:58:11.439Z,18.43
2019-02-23T06:00:58.706Z,17.77
2019-02-23T06:03:46.364Z,18.07
2019-02-23T06:06:34.003Z,18.13
2019-02-23T06:09:21.426Z,17.27
2019-02-23T06:12:09.154Z,21.60
2019-02-23T06:14:56.332Z,19.70
2019-02-23T06:17:43.663Z,19.07
2019-02-23T06:20:31.381Z,18.63
2019-02-23T06:23:18.680Z,17.70
2019-02-23T06:26:05.963Z,18.97
2019-02-23T06:28:53.217Z,18.17
2019-02-23T06:31:40.718Z,19.50
2019-02-23T06:34:28.452Z,20.27
2019-02-23T06:37:15.921Z,19.50
2019-02-23T06:40:03.701Z,23.20
2019-02-23T06:42:51.177Z,19.47
2019-02-23T06:45:38.577Z,19.97
2019-02-23T06:48:26.261Z,19.60
2019-02-23T06:51:13.526Z,20.70
2019-02-23T06:54:00.854Z,20.43
2019-02-23T06:56:48.136Z,22.10
2019-02-23T06:59:35.692Z,20.57
2019-02-23T07:02:23.031Z,21.07
2019-02-23T07:05:10.409Z,21.10
2019-02-23T07:07:57.661Z,20.70
2019-02-23T07:10:44.536Z,19.77
2019-02-23T07:13:32.173Z,19.67
2019-02-23T07:16:19.394Z,20.33
2019-02-23T07:19:06.653Z,20.43
2019-02-23T07:21:54.328Z,20.77
2019-02-23T07:24:41.653Z,20.60
2019-02-23T07:27:28.936Z,21.43
2019-02-23T07:30:16.542Z,22.17
2019-02-23T07:33:04.452Z,20.20
2019-02-23T07:35:52.034Z,21.57
2019-02-23T07:38:39.584Z,20.50
2019-02-23T07:41:27.044Z,21.77
2019-02-23T07:44:14.803Z,21.13
2019-02-23T07:47:04.221Z,18.87
2019-02-23T07:49:51.654Z,18.93
2019-02-23T07:52:39.376Z,20.30
2019-02-23T07:55:27.345Z,18.60
2019-02-23T07:58:14.813Z,19.73
2019-02-23T08:01:02.368Z,18.20
2019-02-23T08:03:49.960Z,18.07
2019-02-23T08:06:37.708Z,18.67
2019-02-23T08:09:25.349Z,18.23
2019-02-23T08:12:12.693Z,18.37
2019-02-23T08:15:00.314Z,17.90
2019-02-23T08:17:47.978Z,17.53
2019-02-23T08:20:35.597Z,17.30
2019-02-23T08:23:23.033Z,18.67
2019-02-23T08:26:10.817Z,16.57
2019-02-23T08:28:58.326Z,17.60
2019-02-23T08:31:46.029Z,17.63
2019-02-23T08:34:33.577Z,16.60
2019-02-23T08:37:21.014Z,16.60
2019-02-23T08:40:13.812Z,17.57
2019-02-23T08:43:01.174Z,16.07
2019-02-23T08:45:48.750Z,16.47
2019-02-23T08:48:36.305Z,16.50
2019-02-23T08:51:23.962Z,16.33
2019-02-23T08:54:11.373Z,21.13
2019-02-23T08:56:58.830Z,16.10
2019-02-23T08:59:46.614Z,16.70
2019-02-23T09:02:34.313Z,16.50
2019-02-23T09:05:21.941Z,16.30
2019-02-23T09:08:09.390Z,16.50
2019-02-23T09:10:57.072Z,16.30
2019-02-23T09:13:44.726Z,15.90
2019-02-23T09:16:32.343Z,16.57
2019-02-23T09:19:20.072Z,16.50
2019-02-23T09:22:07.523Z,15.00
2019-02-23T09:24:55.258Z,16.23
2019-02-23T09:27:42.893Z,15.73
2019-02-23T09:30:30.506Z,14.40
2019-02-23T09:33:18.216Z,14.87
2019-02-23T09:36:05.845Z,15.33
2019-02-23T09:38:53.499Z,16.30
2019-02-23T09:41:41.256Z,14.93
2019-02-23T09:44:28.713Z,15.37
2019-02-23T09:47:16.322Z,15.30
2019-02-23T09:50:03.920Z,15.00
2019-02-23T09:52:51.577Z,15.23
2019-02-23T09:55:38.952Z,15.07
2019-02-23T09:58:26.726Z,14.63
2019-02-23T10:01:14.285Z,14.77
2019-02-23T10:04:01.762Z,14.00
2019-02-23T10:06:49.425Z,14.37
2019-02-23T10:09:36.861Z,14.13
2019-02-23T10:12:24.432Z,13.73
2019-02-23T10:15:12.248Z,14.57
2019-02-23T10:17:59.675Z,14.30
2019-02-23T10:20:47.144Z,12.60
2019-02-23T10:23:34.529Z,13.17
2019-02-23T10:26:21.960Z,12.43
2019-02-23T10:29:09.461Z,12.57
2019-02-23T10:31:57.278Z,12.93
2019-02-23T10:34:44.762Z,11.70
2019-02-23T10:37:32.180Z,12.80
2019-02-23T10:40:19.798Z,12.13
2019-02-23T10:43:07.154Z,11.60
2019-02-23T10:45:54.851Z,12.03
2019-02-23T10:48:42.565Z,12.80
2019-02-23T10:51:30.105Z,12.13
2019-02-23T10:54:17.834Z,12.30
2019-02-23T10:57:05.239Z,11.63
2019-02-23T10:59:52.914Z,12.03
2019-02-23T11:02:40.485Z,10.70
2019-02-23T11:05:28.032Z,10.60
2019-02-23T11:08:15.389Z,10.33
2019-02-23T11:11:03.381Z,10.13
2019-02-23T11:13:50.750Z,9.75
2019-02-23T11:16:38.296Z,9.90
2019-02-23T11:19:25.975Z,9.27
2019-02-23T11:22:13.840Z,8.50
2019-02-23T11:25:01.542Z,8.70
2019-02-23T11:27:48.916Z,7.63
2019-02-23T11:30:36.595Z,8.27
2019-02-23T11:33:24.032Z,8.30
2019-02-23T11:36:11.757Z,8.47
2019-02-23T11:38:59.169Z,8.03
2019-02-23T11:41:46.788Z,8.30
2019-02-23T11:44:34.310Z,7.90
2019-02-23T11:47:21.732Z,7.80
2019-02-23T11:50:11.898Z,7.10
2019-02-23T11:52:59.694Z,7.50
2019-02-23T11:55:47.171Z,7.23
2019-02-23T11:58:34.748Z,7.00
2019-02-23T12:01:22.233Z,6.57
2019-02-23T12:04:09.776Z,6.20
2019-02-23T12:06:57.125Z,6.80
2019-02-23T12:09:44.738Z,6.50
2019-02-23T12:12:32.210Z,6.67
2019-02-23T12:15:19.855Z,6.40
2019-02-23T12:18:07.513Z,5.10
2019-02-23T12:20:54.939Z,5.47
2019-02-23T12:23:42.400Z,5.47
2019-02-23T12:26:29.926Z,5.53
2019-02-23T12:29:17.527Z,5.00
2019-02-23T12:32:05.267Z,4.70
2019-02-23T12:34:53.081Z,4.27
2019-02-23T12:37:40.773Z,4.57
2019-02-23T12:40:28.133Z,4.20
2019-02-23T12:43:15.764Z,3.90
2019-02-23T12:46:03.725Z,4.00
2019-02-23T12:48:51.224Z,4.10
2019-02-23T12:51:38.622Z,4.00
2019-02-23T12:54:26.279Z,3.63
2019-02-23T12:57:13.876Z,3.90
2019-02-23T13:00:01.498Z,4.10
2019-02-23T13:02:49.181Z,4.03
2019-02-23T13:05:36.887Z,4.03
2019-02-23T13:08:27.664Z,4.67
2019-02-23T13:11:15.211Z,4.30
2019-02-23T13:14:08.438Z,4.20
2019-02-23T13:16:59.144Z,5.50
2019-02-23T13:20:18.436Z,3.83
2019-02-23T13:23:20.908Z,4.30
2019-02-23T13:26:20.846Z,4.47
2019-02-23T13:29:36.852Z,4.33
2019-02-23T13:32:36.575Z,4.50
2019-02-23T13:35:54.197Z,4.00
2019-02-23T13:38:50.505Z,4.23
2019-02-23T13:41:58.965Z,4.30
2019-02-23T13:45:10.928Z,3.80
2019-02-23T13:48:34.468Z,3.67
2019-02-23T13:51:33.910Z,3.80
2019-02-23T13:54:56.268Z,4.07
2019-02-23T13:58:04.532Z,3.90
2019-02-23T14:01:00.982Z,3.50
2019-02-23T14:04:00.022Z,3.67
2019-02-23T14:06:53.249Z,3.20
2019-02-23T14:09:59.369Z,3.80
2019-02-23T14:12:50.502Z,3.33
2019-02-23T14:15:56.166Z,3.50
2019-02-23T14:18:49.648Z,3.77
2019-02-23T14:21:59.777Z,3.67
2019-02-23T14:24:58.885Z,3.40
2019-02-23T14:28:01.509Z,3.40
2019-02-23T14:31:13.278Z,3.63
2019-02-23T14:34:18.715Z,2.90
2019-02-23T14:37:30.257Z,3.40
2019-02-23T14:40:23.899Z,3.13
2019-02-23T14:43:35.308Z,3.30
2019-02-23T14:46:28.988Z,3.40
2019-02-23T14:49:28.482Z,3.63
2019-02-23T14:52:21.898Z,3.97
2019-02-23T14:55:18.170Z,3.37
2019-02-23T14:58:25.068Z,3.70
2019-02-23T15:01:44.510Z,3.57
2019-02-23T15:04:49.731Z,3.27
2019-02-23T15:08:05.668Z,3.37
2019-02-23T15:10:59.665Z,3.40
2019-02-23T15:13:56.453Z,3.70
2019-02-23T15:16:52.649Z,4.00
2019-02-23T15:19:48.589Z,3.80
2019-02-23T15:22:51.390Z,3.37
2019-02-23T15:26:14.842Z,3.30
2019-02-23T15:29:27.763Z,3.50
2019-02-23T15:32:36.709Z,3.60
2019-02-23T15:35:43.931Z,4.33
2019-02-23T15:38:37.221Z,3.77
2019-02-23T15:41:39.547Z,3.57
2019-02-23T15:44:55.444Z,3.80
2019-02-23T15:48:07.030Z,3.57
2019-02-23T15:50:54.703Z,4.00
2019-02-23T15:53:42.159Z,3.97
2019-02-23T15:56:29.850Z,3.60
2019-02-23T15:59:17.709Z,4.10
2019-02-23T16:02:05.398Z,3.80
2019-02-23T16:04:53.070Z,3.37
2019-02-23T16:07:40.646Z,3.90
2019-02-23T16:10:28.450Z,3.77
2019-02-23T16:13:16.181Z,3.27
2019-02-23T16:16:03.853Z,3.90
2019-02-23T16:18:51.465Z,3.97
2019-02-23T16:21:38.737Z,3.50
2019-02-23T16:24:26.202Z,3.77
2019-02-23T16:27:13.824Z,3.30
2019-02-23T16:30:01.660Z,3.60
2019-02-23T16:32:49.099Z,3.70
2019-02-23T16:35:36.668Z,3.27
2019-02-23T16:38:24.213Z,3.43
2019-02-23T16:41:11.729Z,3.40
2019-02-23T16:43:59.352Z,3.37
2019-02-23T16:46:47.121Z,2.80
2019-02-23T16:49:34.625Z,3.50
2019-02-23T16:52:22.223Z,3.57
2019-02-23T16:55:09.656Z,3.07
2019-02-23T16:57:57.574Z,3.03
2019-02-23T17:00:45.296Z,2.90
2019-02-23T17:03:32.890Z,3.43
2019-02-23T17:06:20.578Z,3.00
2019-02-23T17:09:08.621Z,3.37
2019-02-23T17:11:56.477Z,3.03
2019-02-23T17:14:43.951Z,3.00
2019-02-23T17:17:31.317Z,3.40
2019-02-23T17:20:18.811Z,3.03
2019-02-23T17:23:06.537Z,3.17
2019-02-23T17:26:03.818Z,3.27
2019-02-23T17:28:43.438Z,3.37
2019-02-23T17:31:30.941Z,3.37
2019-02-23T17:34:18.673Z,10.80
2019-02-23T17:37:06.374Z,5.70
2019-02-23T17:39:53.829Z,7.03
2019-02-23T17:42:41.245Z,10.43
2019-02-23T17:45:28.937Z,8.13
2019-02-23T17:48:16.330Z,5.03
2019-02-23T17:51:03.689Z,4.43
2019-02-23T17:53:51.464Z,5.13
2019-02-23T17:56:38.892Z,4.77
2019-02-23T17:59:26.523Z,4.93
2019-02-23T18:02:13.985Z,6.17
2019-02-23T18:05:01.401Z,6.63
2019-02-23T18:07:48.806Z,3.13
2019-02-23T18:10:36.242Z,3.23
2019-02-23T18:13:24.121Z,3.00
2019-02-23T18:16:11.513Z,3.30
2019-02-23T18:18:58.941Z,3.30
2019-02-23T18:21:46.293Z,3.10
2019-02-23T18:24:33.977Z,3.53
2019-02-23T18:27:21.440Z,3.30
2019-02-23T18:30:11.383Z,3.13
2019-02-23T18:32:59.858Z,3.60
2019-02-23T18:35:47.453Z,3.07
2019-02-23T18:38:34.799Z,3.20
2019-02-23T18:41:22.222Z,2.90
2019-02-23T18:44:09.702Z,3.23
2019-02-23T18:46:57.411Z,3.27
2019-02-23T18:49:44.786Z,3.57
2019-02-23T18:52:32.545Z,3.97
2019-02-23T18:55:20.029Z,4.60
2019-02-23T18:58:14.585Z,4.03
2019-02-23T19:01:02.459Z,3.57
2019-02-23T19:03:49.960Z,3.63
2019-02-23T19:06:37.349Z,3.90
2019-02-23T19:09:24.982Z,3.27
2019-02-23T19:12:12.335Z,3.10
2019-02-23T19:14:59.994Z,2.60
2019-02-23T19:17:47.589Z,2.80
2019-02-23T19:20:35.442Z,2.67
2019-02-23T19:23:23.105Z,2.53
2019-02-23T19:26:10.634Z,2.50
2019-02-23T19:28:58.390Z,2.60
2019-02-23T19:31:46.206Z,2.47
2019-02-23T19:34:33.697Z,2.40
2019-02-23T19:37:21.302Z,2.73
2019-02-23T19:40:09.673Z,2.70
2019-02-23T19:42:57.203Z,2.30
2019-02-23T19:45:44.906Z,2.50
2019-02-23T19:48:32.480Z,3.40
2019-02-23T19:51:19.904Z,2.90
2019-02-23T19:54:07.426Z,2.70
2019-02-23T19:56:55.034Z,3.20
2019-02-23T19:59:42.669Z,3.23
2019-02-23T20:02:30.374Z,3.53
2019-02-23T20:05:17.920Z,3.13
2019-02-23T20:08:05.326Z,3.30
2019-02-23T20:10:53.976Z,2.60
2019-02-23T20:13:41.858Z,3.40
2019-02-23T20:16:29.265Z,4.17
2019-02-23T20:19:16.892Z,3.60
2019-02-23T20:22:04.549Z,3.43
2019-02-23T20:24:52.323Z,3.53
2019-02-23T20:27:39.719Z,4.67
2019-02-23T20:30:27.349Z,4.27
2019-02-23T20:33:15.098Z,4.93
2019-02-23T20:36:02.505Z,4.83
2019-02-23T20:38:49.871Z,4.80
2019-02-23T20:41:37.417Z,4.47
2019-02-23T20:44:24.905Z,4.70
2019-02-23T20:47:12.326Z,4.60
2019-02-23T20:49:59.863Z,4.23
2019-02-23T20:52:47.499Z,4.37
2019-02-23T20:55:35.087Z,3.83
2019-02-23T20:58:22.771Z,4.53
2019-02-23T21:01:10.587Z,4.37
2019-02-23T21:03:58.345Z,4.10
2019-02-23T21:06:45.970Z,4.47
2019-02-23T21:09:33.796Z,4.20
2019-02-23T21:12:21.444Z,4.33
2019-02-23T21:15:10.642Z,4.10
2019-02-23T21:17:58.208Z,3.90
2019-02-23T21:20:45.895Z,4.07
2019-02-23T21:23:33.265Z,4.43
2019-02-23T21:26:20.799Z,4.60
2019-02-23T21:29:08.251Z,3.60
2019-02-23T21:31:55.952Z,3.97
2019-02-23T21:34:43.465Z,3.73
2019-02-23T21:37:31.062Z,3.63
2019-02-23T21:40:18.694Z,3.47
2019-02-23T21:43:06.396Z,3.60
2019-02-23T21:45:54.051Z,3.23
2019-02-23T21:48:41.600Z,3.93
2019-02-23T21:51:28.987Z,3.70
2019-02-23T21:54:16.662Z,4.10
2019-02-23T21:57:04.250Z,4.40
2019-02-23T21:59:52.458Z,4.37
2019-02-23T22:02:40.155Z,4.07
2019-02-23T22:05:30.865Z,4.67
2019-02-23T22:08:18.373Z,4.17
2019-02-23T22:11:07.889Z,4.30
2019-02-23T22:13:55.646Z,4.13
2019-02-23T22:16:44.649Z,4.17
2019-02-23T22:19:32.186Z,3.80
2019-02-23T22:22:19.768Z,3.73
2019-02-23T22:25:07.522Z,3.60
2019-02-23T22:27:54.993Z,3.73
2019-02-23T22:30:42.629Z,3.90
2019-02-23T22:33:29.957Z,3.80
2019-02-23T22:36:17.653Z,3.20
2019-02-23T22:39:07.439Z,3.33
2019-02-23T22:41:55.216Z,3.67
2019-02-23T22:44:42.575Z,3.73
2019-02-23T22:47:30.418Z,4.10
2019-02-23T22:50:18.074Z,4.37
2019-02-23T22:53:05.784Z,4.80
2019-02-23T22:55:53.396Z,4.83
2019-02-23T22:58:41.077Z,4.83
2019-02-23T23:01:28.900Z,4.63
2019-02-23T23:04:16.351Z,5.03
2019-02-23T23:07:04.024Z,3.73
2019-02-23T23:09:51.357Z,4.17
2019-02-23T23:12:38.985Z,4.00
2019-02-23T23:15:26.462Z,4.30
2019-02-23T23:18:14.140Z,3.90
2019-02-23T23:21:02.204Z,4.57
2019-02-23T23:23:49.569Z,4.17
2019-02-23T23:26:37.226Z,4.70
2019-02-23T23:29:24.701Z,4.63
2019-02-23T23:32:12.381Z,4.97
2019-02-23T23:35:00.290Z,4.70
2019-02-23T23:37:48.008Z,4.60
2019-02-23T23:40:35.706Z,4.77
2019-02-23T23:43:23.081Z,4.20
2019-02-23T23:46:10.813Z,3.87
2019-02-23T23:48:58.241Z,3.50
2019-02-23T23:51:45.856Z,3.60
2019-02-23T23:54:33.276Z,3.90
2019-02-23T23:57:20.669Z,3.70
